Time;durP1;ratioP1;P1;durP2;ratioP2;P2;SDS_P1;SDS_P2;PMS_P1;PMS_P2;Temp;Humidity;BMP_temperature;BMP_pressure;BME280_temperature;BME280_humidity;BME280_pressure;Samples;Min_cycle;Max_cycle;Signal;HPM_P1;HPM_P2
2022/06/27 00:01:03;;;;;;;7.25;4.50;;;;;;;;;;5026272;28;20029;-77
2022/06/27 00:03:29;;;;;;;6.88;4.30;;;;;;;;;;5028424;28;20037;-79
2022/06/27 00:05:54;;;;;;;6.35;4.80;;;;;;;;;;5032873;28;20075;-79
2022/06/27 00:08:20;;;;;;;6.40;4.50;;;;;;;;;;5030821;28;20029;-75
2022/06/27 00:10:45;;;;;;;6.35;4.45;;;;;;;;;;5027718;28;20874;-79
2022/06/27 00:13:11;;;;;;;7.22;4.72;;;;;;;;;;5007018;28;20931;-77
2022/06/27 00:15:36;;;;;;;7.25;4.82;;;;;;;;;;5025225;28;20432;-77
2022/06/27 00:18:02;;;;;;;8.68;4.85;;;;;;;;;;5004307;28;20025;-75
2022/06/27 00:20:27;;;;;;;6.53;4.72;;;;;;;;;;5030332;28;20053;-75
2022/06/27 00:22:53;;;;;;;6.97;4.55;;;;;;;;;;5026112;28;21447;-74
2022/06/27 00:25:19;;;;;;;8.02;5.07;;;;;;;;;;5021763;28;20113;-74
2022/06/27 00:27:45;;;;;;;7.15;5.13;;;;;;;;;;5026933;28;20057;-77
2022/06/27 00:30:12;;;;;;;7.93;5.13;;;;;;;;;;5003193;28;20025;-77
2022/06/27 00:32:37;;;;;;;6.30;4.38;;;;;;;;;;5024619;28;20031;-79
2022/06/27 00:35:07;;;;;;;6.72;4.72;;;;;;;;;;5008916;28;20025;-76
2022/06/27 00:37:33;;;;;;;5.95;4.43;;;;;;;;;;5023989;28;20106;-79
2022/06/27 00:39:58;;;;;;;5.53;4.20;;;;;;;;;;5024780;28;20163;-79
2022/06/27 00:42:23;;;;;;;7.57;4.57;;;;;;;;;;5030546;28;20032;-73
2022/06/27 00:44:50;;;;;;;6.57;5.00;;;;;;;;;;5025131;28;20140;-77
2022/06/27 00:47:16;;;;;;;7.40;4.68;;;;;;;;;;5010823;28;20112;-74
2022/06/27 00:49:42;;;;;;;7.85;4.95;;;;;;;;;;5025030;28;20748;-77
2022/06/27 00:52:12;;;;;;;6.82;4.75;;;;;;;;;;5031167;28;20036;-72
2022/06/27 00:54:41;;;;;;;8.70;5.32;;;;;;;;;;5011145;28;20044;-75
2022/06/27 00:57:07;;;;;;;6.78;4.80;;;;;;;;;;5027591;28;20449;-76
2022/06/27 00:59:34;;;;;;;8.25;5.22;;;;;;;;;;5022058;28;20029;-73
2022/06/27 01:02:01;;;;;;;7.85;4.65;;;;;;;;;;5026735;28;20091;-74
2022/06/27 01:04:26;;;;;;;9.63;5.32;;;;;;;;;;5004119;28;20408;-76
2022/06/27 01:06:52;;;;;;;6.78;4.70;;;;;;;;;;5026882;28;20029;-77
2022/06/27 01:09:20;;;;;;;7.68;5.15;;;;;;;;;;5004657;28;20052;-75
2022/06/27 01:11:46;;;;;;;7.65;4.88;;;;;;;;;;5020957;28;20021;-77
2022/06/27 01:14:12;;;;;;;5.97;3.97;;;;;;;;;;5022058;28;20093;-79
2022/06/27 01:16:39;;;;;;;7.35;5.00;;;;;;;;;;4998766;28;20037;-77
2022/06/27 01:19:08;;;;;;;6.63;5.07;;;;;;;;;;5025376;28;20057;-77
2022/06/27 01:21:43;;;;;;;6.97;4.63;;;;;;;;;;5021982;28;20049;-75
2022/06/27 01:24:09;;;;;;;7.95;5.00;;;;;;;;;;5006706;28;20082;-79
2022/06/27 01:26:35;;;;;;;7.15;5.30;;;;;;;;;;5022223;28;20025;-74
2022/06/27 01:29:00;;;;;;;7.68;4.80;;;;;;;;;;5017160;28;20588;-75
2022/06/27 01:31:27;;;;;;;8.20;4.80;;;;;;;;;;5026426;28;20033;-74
2022/06/27 01:33:53;;;;;;;7.78;5.03;;;;;;;;;;5023475;28;20025;-73
2022/06/27 01:39:03;;;;;;;6.22;4.25;;;;;;;;;;5024298;28;20052;-75
2022/06/27 01:41:28;;;;;;;8.73;4.45;;;;;;;;;;5022132;28;20030;-75
2022/06/27 01:43:54;;;;;;;6.35;4.13;;;;;;;;;;5026269;28;20041;-73
2022/06/27 01:46:19;;;;;;;5.90;4.10;;;;;;;;;;5027006;28;20048;-79
2022/06/27 01:48:44;;;;;;;7.93;4.55;;;;;;;;;;5005801;28;20115;-79
2022/06/27 01:51:11;;;;;;;7.38;4.13;;;;;;;;;;5029762;28;20101;-74
2022/06/27 01:53:37;;;;;;;6.07;3.97;;;;;;;;;;5022692;28;20032;-75
2022/06/27 01:56:03;;;;;;;5.53;3.80;;;;;;;;;;5023016;28;20025;-73
2022/06/27 01:58:29;;;;;;;7.82;3.85;;;;;;;;;;5021931;28;20063;-78
2022/06/27 02:00:55;;;;;;;7.38;4.10;;;;;;;;;;5021512;28;20116;-73
2022/06/27 02:03:23;;;;;;;8.57;3.72;;;;;;;;;;5026607;28;20028;-77
2022/06/27 02:05:49;;;;;;;7.00;3.72;;;;;;;;;;5004122;28;20021;-78
2022/06/27 02:08:15;;;;;;;7.05;3.75;;;;;;;;;;5026602;28;21032;-74
2022/06/27 02:10:41;;;;;;;7.55;4.22;;;;;;;;;;5010196;28;20032;-75
2022/06/27 02:13:07;;;;;;;5.85;3.90;;;;;;;;;;5009740;28;20033;-77
2022/06/27 02:15:32;;;;;;;5.85;4.13;;;;;;;;;;5010942;28;20033;-74
2022/06/27 02:17:58;;;;;;;7.63;4.10;;;;;;;;;;5030508;28;20029;-72
2022/06/27 02:20:23;;;;;;;5.65;3.90;;;;;;;;;;5026178;28;20303;-73
2022/06/27 02:22:50;;;;;;;7.03;4.35;;;;;;;;;;5031236;28;20473;-76
2022/06/27 02:25:15;;;;;;;7.68;4.55;;;;;;;;;;5027043;28;20041;-77
2022/06/27 02:27:42;;;;;;;6.30;4.15;;;;;;;;;;5010494;28;20033;-78
2022/06/27 02:30:08;;;;;;;5.65;3.97;;;;;;;;;;5026640;28;20079;-75
2022/06/27 02:32:33;;;;;;;7.32;4.18;;;;;;;;;;5028750;28;20048;-75
2022/06/27 02:34:58;;;;;;;7.38;4.55;;;;;;;;;;5014689;28;20024;-79
2022/06/27 02:37:25;;;;;;;6.78;4.85;;;;;;;;;;5013072;28;20025;-73
2022/06/27 02:39:52;;;;;;;5.70;3.90;;;;;;;;;;5029187;28;20034;-77
2022/06/27 02:42:20;;;;;;;6.85;4.60;;;;;;;;;;5011296;28;20025;-75
2022/06/27 02:44:50;;;;;;;6.95;5.20;;;;;;;;;;5031581;28;21780;-73
2022/06/27 02:47:20;;;;;;;6.47;4.60;;;;;;;;;;5005298;28;20037;-75
2022/06/27 02:49:46;;;;;;;8.23;5.60;;;;;;;;;;5021063;28;20033;-74
2022/06/27 02:52:33;;;;;;;7.05;4.53;;;;;;;;;;5013039;28;20029;-76
2022/06/27 02:55:12;;;;;;;7.85;4.70;;;;;;;;;;5028190;28;20074;-74
2022/06/27 02:57:45;;;;;;;6.70;4.68;;;;;;;;;;5027899;28;20139;-75
2022/06/27 03:00:12;;;;;;;7.85;4.75;;;;;;;;;;5008114;28;20033;-75
2022/06/27 03:02:40;;;;;;;7.60;5.60;;;;;;;;;;5009862;28;20112;-76
2022/06/27 03:05:06;;;;;;;7.28;5.40;;;;;;;;;;5005199;28;20086;-78
2022/06/27 03:07:40;;;;;;;8.57;5.47;;;;;;;;;;5012342;28;20063;-73
2022/06/27 03:10:06;;;;;;;7.53;5.50;;;;;;;;;;5031804;28;20076;-74
2022/06/27 03:12:31;;;;;;;7.55;5.35;;;;;;;;;;5009209;28;22372;-77
2022/06/27 03:14:56;;;;;;;8.45;5.70;;;;;;;;;;5026463;28;20033;-73
2022/06/27 03:17:22;;;;;;;7.15;5.43;;;;;;;;;;5030387;28;20025;-78
2022/06/27 03:19:50;;;;;;;7.10;5.22;;;;;;;;;;5029103;28;20029;-77
2022/06/27 03:22:15;;;;;;;7.80;5.97;;;;;;;;;;5023417;28;20507;-74
2022/06/27 03:24:40;;;;;;;9.27;6.38;;;;;;;;;;5006845;28;20029;-79
2022/06/27 03:27:06;;;;;;;8.70;7.10;;;;;;;;;;5009420;28;20026;-76
2022/06/27 03:29:31;;;;;;;7.90;6.05;;;;;;;;;;5026077;28;20037;-75
2022/06/27 03:31:57;;;;;;;7.72;6.28;;;;;;;;;;5029056;28;20025;-74
2022/06/27 03:34:23;;;;;;;7.93;6.05;;;;;;;;;;5011547;28;20487;-76
2022/06/27 03:36:49;;;;;;;8.88;5.85;;;;;;;;;;5008832;28;20104;-77
2022/06/27 03:39:14;;;;;;;8.73;5.93;;;;;;;;;;5027657;28;20124;-72
2022/06/27 03:41:40;;;;;;;10.27;6.40;;;;;;;;;;5026724;28;20797;-74
2022/06/27 03:44:11;;;;;;;7.50;5.97;;;;;;;;;;5024413;28;20032;-74
2022/06/27 03:46:37;;;;;;;7.30;5.93;;;;;;;;;;5009229;28;20417;-75
2022/06/27 03:51:47;;;;;;;9.00;6.07;;;;;;;;;;5026591;28;20496;-75
2022/06/27 03:54:13;;;;;;;6.63;5.30;;;;;;;;;;5012315;28;20049;-75
2022/06/27 03:56:38;;;;;;;7.03;6.10;;;;;;;;;;5011471;28;20132;-74
2022/06/27 03:59:03;;;;;;;8.93;5.70;;;;;;;;;;5032186;28;20117;-79
2022/06/27 04:01:29;;;;;;;8.50;5.97;;;;;;;;;;5030579;28;20036;-76
2022/06/27 04:03:54;;;;;;;7.47;6.10;;;;;;;;;;5026451;28;20029;-77
2022/06/27 04:06:20;;;;;;;7.57;6.20;;;;;;;;;;5033887;28;20104;-77
2022/06/27 04:08:45;;;;;;;8.05;6.22;;;;;;;;;;5026762;28;20034;-77
2022/06/27 04:11:10;;;;;;;8.48;6.53;;;;;;;;;;5025951;28;20536;-78
2022/06/27 04:13:36;;;;;;;7.43;6.20;;;;;;;;;;5024423;28;20025;-77
2022/06/27 04:16:04;;;;;;;10.73;7.13;;;;;;;;;;5026179;28;20061;-73
2022/06/27 04:18:30;;;;;;;8.02;6.90;;;;;;;;;;5007038;28;20037;-74
2022/06/27 04:20:56;;;;;;;8.73;7.15;;;;;;;;;;5030072;28;20022;-75
2022/06/27 04:23:21;;;;;;;10.02;7.00;;;;;;;;;;5027023;28;20065;-78
2022/06/27 04:25:47;;;;;;;8.43;5.90;;;;;;;;;;5002785;28;20485;-79
2022/06/27 04:28:13;;;;;;;7.68;5.97;;;;;;;;;;5005557;28;20054;-77
2022/06/27 04:30:40;;;;;;;8.32;6.80;;;;;;;;;;5007497;28;20033;-75
2022/06/27 04:33:07;;;;;;;10.48;7.18;;;;;;;;;;5010851;28;20366;-80
2022/06/27 04:35:32;;;;;;;10.05;7.65;;;;;;;;;;5021293;28;20021;-76
2022/06/27 04:37:58;;;;;;;10.18;7.22;;;;;;;;;;5010447;28;20032;-73
2022/06/27 04:40:23;;;;;;;9.20;6.95;;;;;;;;;;5004026;28;20457;-73
2022/06/27 04:42:49;;;;;;;10.63;7.43;;;;;;;;;;5013339;28;20473;-75
2022/06/27 04:45:15;;;;;;;11.07;6.82;;;;;;;;;;5006222;28;20041;-78
2022/06/27 04:47:44;;;;;;;9.07;7.22;;;;;;;;;;5011488;28;20474;-75
2022/06/27 04:50:12;;;;;;;9.95;6.85;;;;;;;;;;5005937;28;20466;-79
2022/06/27 04:52:38;;;;;;;11.93;7.63;;;;;;;;;;5009738;28;20715;-77
2022/06/27 04:55:08;;;;;;;10.35;7.82;;;;;;;;;;5007159;28;20539;-75
2022/06/27 04:57:39;;;;;;;10.48;7.80;;;;;;;;;;5007149;28;20034;-76
2022/06/27 05:00:08;;;;;;;10.68;7.82;;;;;;;;;;5005417;28;20450;-77
2022/06/27 05:02:34;;;;;;;10.73;8.23;;;;;;;;;;5005996;28;20044;-80
2022/06/27 05:04:59;;;;;;;9.82;7.45;;;;;;;;;;5004077;28;20046;-77
2022/06/27 05:07:25;;;;;;;9.07;7.55;;;;;;;;;;5008391;28;20034;-75
2022/06/27 05:09:54;;;;;;;9.77;7.88;;;;;;;;;;5003971;28;20452;-77
2022/06/27 05:12:20;;;;;;;8.65;7.03;;;;;;;;;;5020149;28;20053;-73
2022/06/27 05:14:46;;;;;;;11.70;7.50;;;;;;;;;;5001541;28;20030;-79
2022/06/27 05:17:12;;;;;;;11.50;7.50;;;;;;;;;;5004530;28;20070;-79
2022/06/27 05:19:37;;;;;;;11.70;7.60;;;;;;;;;;5004663;28;20040;-77
2022/06/27 05:22:03;;;;;;;9.90;6.60;;;;;;;;;;4993425;28;20502;-76
2022/06/27 05:24:28;;;;;;;9.77;6.40;;;;;;;;;;4999413;28;20083;-75
2022/06/27 05:26:54;;;;;;;7.93;5.75;;;;;;;;;;5000202;28;20029;-80
2022/06/27 05:29:20;;;;;;;8.25;6.93;;;;;;;;;;5018390;28;20080;-78
2022/06/27 05:31:45;;;;;;;10.95;7.65;;;;;;;;;;5019478;28;20112;-74
2022/06/27 05:34:11;;;;;;;10.75;7.70;;;;;;;;;;5003045;28;21601;-78
2022/06/27 05:36:37;;;;;;;11.82;7.70;;;;;;;;;;5019481;28;20032;-75
2022/06/27 05:39:03;;;;;;;10.48;7.65;;;;;;;;;;5006353;28;20025;-75
2022/06/27 05:41:28;;;;;;;10.40;7.60;;;;;;;;;;5027318;28;20037;-80
2022/06/27 05:43:54;;;;;;;9.27;6.95;;;;;;;;;;5029926;28;20021;-79
2022/06/27 05:46:19;;;;;;;9.77;7.57;;;;;;;;;;5031104;28;20112;-75
2022/06/27 05:48:45;;;;;;;9.23;7.18;;;;;;;;;;5007625;28;20025;-78
2022/06/27 05:51:10;;;;;;;11.18;8.00;;;;;;;;;;5014417;28;20021;-77
2022/06/27 05:53:38;;;;;;;10.63;7.95;;;;;;;;;;5006992;28;20033;-76
2022/06/27 05:56:04;;;;;;;9.82;7.43;;;;;;;;;;5027120;28;20036;-77
2022/06/27 05:58:31;;;;;;;10.60;8.02;;;;;;;;;;5012389;28;20033;-76
2022/06/27 06:00:57;;;;;;;12.10;8.48;;;;;;;;;;5030130;28;20450;-77
2022/06/27 06:03:22;;;;;;;9.60;8.13;;;;;;;;;;5027790;28;20025;-77
2022/06/27 06:05:48;;;;;;;10.20;8.43;;;;;;;;;;5009893;28;20029;-74
2022/06/27 06:08:14;;;;;;;11.05;8.10;;;;;;;;;;5028699;28;20025;-73
2022/06/27 06:10:40;;;;;;;11.40;8.07;;;;;;;;;;5026422;28;20021;-73
2022/06/27 06:13:05;;;;;;;11.63;8.52;;;;;;;;;;5029686;28;20392;-75
2022/06/27 06:15:32;;;;;;;10.07;8.32;;;;;;;;;;5011751;28;20040;-79
2022/06/27 06:18:01;;;;;;;11.20;8.85;;;;;;;;;;5033328;28;20109;-79
2022/06/27 06:20:27;;;;;;;10.80;9.07;;;;;;;;;;5027829;28;20052;-77
2022/06/27 06:22:52;;;;;;;9.52;8.50;;;;;;;;;;5028474;28;20030;-75
2022/06/27 06:25:18;;;;;;;12.93;9.00;;;;;;;;;;5029437;28;20028;-75
2022/06/27 06:27:44;;;;;;;13.73;10.07;;;;;;;;;;5031631;28;20058;-79
2022/06/27 06:30:10;;;;;;;12.43;9.98;;;;;;;;;;5031603;28;20405;-77
2022/06/27 06:32:36;;;;;;;13.48;10.05;;;;;;;;;;5021582;28;20074;-75
2022/06/27 06:35:02;;;;;;;12.50;9.20;;;;;;;;;;5029132;28;20474;-77
2022/06/27 06:37:29;;;;;;;11.82;8.77;;;;;;;;;;5031299;28;20018;-77
2022/06/27 06:39:55;;;;;;;12.55;9.23;;;;;;;;;;5010868;28;20470;-77
2022/06/27 06:42:20;;;;;;;11.95;9.75;;;;;;;;;;5012957;28;20032;-76
2022/06/27 06:44:46;;;;;;;13.77;10.05;;;;;;;;;;5015581;28;20404;-80
2022/06/27 06:47:12;;;;;;;13.23;9.93;;;;;;;;;;5038524;28;20040;-80
2022/06/27 06:49:39;;;;;;;14.13;10.65;;;;;;;;;;5032038;28;20021;-76
2022/06/27 06:52:05;;;;;;;13.35;10.00;;;;;;;;;;5014081;28;20044;-79
2022/06/27 06:54:31;;;;;;;12.75;10.68;;;;;;;;;;5015769;28;20025;-80
2022/06/27 06:56:57;;;;;;;14.07;10.40;;;;;;;;;;5032904;28;20519;-79
2022/06/27 06:59:22;;;;;;;12.27;10.15;;;;;;;;;;5029018;28;20020;-80
2022/06/27 07:01:48;;;;;;;12.70;9.95;;;;;;;;;;5031428;28;20123;-76
2022/06/27 07:04:14;;;;;;;13.48;9.98;;;;;;;;;;5013087;28;20116;-79
2022/06/27 07:06:40;;;;;;;12.23;9.85;;;;;;;;;;5014693;28;20220;-79
2022/06/27 07:09:06;;;;;;;11.93;8.90;;;;;;;;;;5032960;28;20061;-79
2022/06/27 07:11:31;;;;;;;12.90;9.55;;;;;;;;;;5016551;28;20347;-78
2022/06/27 07:13:58;;;;;;;11.77;10.02;;;;;;;;;;5014246;28;20035;-79
2022/06/27 07:16:25;;;;;;;14.00;10.32;;;;;;;;;;5012278;28;20473;-79
2022/06/27 07:18:58;;;;;;;11.25;9.48;;;;;;;;;;5021271;28;20108;-74
2022/06/27 07:21:28;;;;;;;11.57;9.07;;;;;;;;;;5029545;28;20068;-79
2022/06/27 07:23:55;;;;;;;11.73;8.82;;;;;;;;;;5031297;28;20400;-74
2022/06/27 07:26:21;;;;;;;11.35;9.38;;;;;;;;;;5028338;28;20025;-75
2022/06/27 07:28:48;;;;;;;13.48;8.60;;;;;;;;;;5008191;28;20053;-80
2022/06/27 07:31:15;;;;;;;11.40;8.57;;;;;;;;;;5012744;28;20109;-75
2022/06/27 07:33:46;;;;;;;13.40;9.93;;;;;;;;;;5016242;28;20096;-75
2022/06/27 07:36:15;;;;;;;10.80;8.10;;;;;;;;;;5010920;28;20033;-74
2022/06/27 07:38:46;;;;;;;11.05;8.65;;;;;;;;;;5005397;28;20045;-76
2022/06/27 07:41:13;;;;;;;10.93;8.02;;;;;;;;;;5010281;28;20496;-74
2022/06/27 07:43:40;;;;;;;11.70;9.68;;;;;;;;;;5014002;28;20417;-76
2022/06/27 07:46:05;;;;;;;13.20;10.25;;;;;;;;;;5010033;28;20473;-75
2022/06/27 07:48:31;;;;;;;11.68;9.95;;;;;;;;;;5011031;28;20037;-80
2022/06/27 07:50:57;;;;;;;11.00;8.38;;;;;;;;;;5003162;28;20489;-80
2022/06/27 07:53:24;;;;;;;13.55;10.40;;;;;;;;;;5006836;28;20025;-80
2022/06/27 07:55:56;;;;;;;11.13;8.95;;;;;;;;;;5007748;28;20027;-75
2022/06/27 07:58:32;;;;;;;12.63;10.02;;;;;;;;;;5006317;28;20061;-73
2022/06/27 08:01:00;;;;;;;14.35;10.07;;;;;;;;;;5002536;28;20027;-80
2022/06/27 08:03:40;;;;;;;13.52;10.85;;;;;;;;;;5010313;28;20034;-75
2022/06/27 08:06:21;;;;;;;12.40;9.52;;;;;;;;;;5005107;28;20033;-75
2022/06/27 08:08:52;;;;;;;12.23;9.23;;;;;;;;;;5011622;28;20030;-80
2022/06/27 08:11:20;;;;;;;12.00;10.20;;;;;;;;;;5011468;28;20030;-74
2022/06/27 08:13:47;;;;;;;12.95;10.05;;;;;;;;;;5011686;28;20025;-79
2022/06/27 08:16:14;;;;;;;12.55;9.23;;;;;;;;;;5012384;28;20112;-74
2022/06/27 08:18:44;;;;;;;13.70;10.73;;;;;;;;;;5005136;28;20484;-79
2022/06/27 08:21:10;;;;;;;13.95;10.77;;;;;;;;;;5017003;28;20432;-78
2022/06/27 08:23:37;;;;;;;16.77;11.90;;;;;;;;;;5007936;28;20049;-75
2022/06/27 08:26:08;;;;;;;14.05;11.68;;;;;;;;;;5004181;28;20057;-76
2022/06/27 08:28:37;;;;;;;13.63;10.98;;;;;;;;;;5021557;28;20077;-74
2022/06/27 08:31:08;;;;;;;13.52;10.77;;;;;;;;;;5009435;28;20033;-79
2022/06/27 08:33:35;;;;;;;16.13;11.93;;;;;;;;;;5035986;28;20550;-74
2022/06/27 08:36:02;;;;;;;16.60;11.13;;;;;;;;;;5032743;28;20021;-75
2022/06/27 08:38:28;;;;;;;17.40;11.55;;;;;;;;;;5012582;28;20037;-75
2022/06/27 08:40:54;;;;;;;14.57;10.80;;;;;;;;;;5011606;28;20478;-79
2022/06/27 08:43:20;;;;;;;11.90;9.70;;;;;;;;;;5032745;28;20026;-79
2022/06/27 08:45:47;;;;;;;12.60;10.20;;;;;;;;;;5028233;28;20047;-76
2022/06/27 08:48:14;;;;;;;13.27;9.77;;;;;;;;;;5009720;28;20056;-78
2022/06/27 08:50:41;;;;;;;12.13;9.38;;;;;;;;;;5027987;28;20441;-75
2022/06/27 08:53:07;;;;;;;11.20;8.77;;;;;;;;;;5027350;28;20061;-80
2022/06/27 08:55:34;;;;;;;13.80;8.95;;;;;;;;;;5020122;28;20408;-74
2022/06/27 08:58:06;;;;;;;10.35;8.02;;;;;;;;;;5013438;28;20048;-76
2022/06/27 09:00:34;;;;;;;12.63;9.25;;;;;;;;;;5029171;28;20045;-78
2022/06/27 09:02:59;;;;;;;9.70;7.38;;;;;;;;;;5028441;28;20037;-74
2022/06/27 09:05:27;;;;;;;13.20;7.50;;;;;;;;;;5016000;28;20432;-74
2022/06/27 09:08:01;;;;;;;11.68;7.82;;;;;;;;;;5010135;28;20028;-80
2022/06/27 09:10:36;;;;;;;11.43;7.88;;;;;;;;;;5028123;28;20108;-81
2022/06/27 09:13:17;;;;;;;11.98;8.20;;;;;;;;;;5032810;28;20116;-75
2022/06/27 09:15:52;;;;;;;13.95;8.68;;;;;;;;;;5029975;28;20112;-81
2022/06/27 09:18:20;;;;;;;13.93;10.75;;;;;;;;;;5027718;28;20469;-76
2022/06/27 09:21:03;;;;;;;11.15;8.52;;;;;;;;;;5017677;28;20493;-80
2022/06/27 09:23:32;;;;;;;13.50;9.60;;;;;;;;;;5031631;28;20406;-73
2022/06/27 09:26:05;;;;;;;13.43;9.88;;;;;;;;;;5027007;28;20718;-74
2022/06/27 09:28:44;;;;;;;13.15;9.50;;;;;;;;;;5032419;28;20068;-76
2022/06/27 09:31:12;;;;;;;11.65;9.02;;;;;;;;;;5028711;28;20032;-76
2022/06/27 09:33:41;;;;;;;11.02;8.85;;;;;;;;;;5008524;28;20018;-74
2022/06/27 09:36:15;;;;;;;12.43;8.65;;;;;;;;;;5012917;28;20112;-80
2022/06/27 09:38:45;;;;;;;11.40;8.18;;;;;;;;;;5010839;28;20033;-79
2022/06/27 09:41:12;;;;;;;11.02;8.70;;;;;;;;;;5028625;28;20025;-80
2022/06/27 09:43:46;;;;;;;11.25;8.30;;;;;;;;;;5029079;28;20037;-79
2022/06/27 09:46:15;;;;;;;12.48;9.85;;;;;;;;;;5027797;28;20033;-80
2022/06/27 09:48:44;;;;;;;14.70;10.45;;;;;;;;;;5027845;28;20033;-77
2022/06/27 09:51:14;;;;;;;12.27;8.98;;;;;;;;;;5015579;28;20082;-76
2022/06/27 09:53:40;;;;;;;12.57;9.30;;;;;;;;;;5011046;28;20042;-80
2022/06/27 09:56:10;;;;;;;11.30;9.55;;;;;;;;;;5028120;28;20033;-79
2022/06/27 09:58:37;;;;;;;15.70;9.30;;;;;;;;;;5009657;28;20037;-74
2022/06/27 10:01:04;;;;;;;13.73;9.63;;;;;;;;;;5035216;28;20059;-75
2022/06/27 10:03:32;;;;;;;12.07;8.65;;;;;;;;;;5028687;28;20040;-75
2022/06/27 10:05:59;;;;;;;12.23;9.10;;;;;;;;;;5027067;28;20492;-76
2022/06/27 10:08:25;;;;;;;13.95;9.68;;;;;;;;;;5005565;28;20025;-78
2022/06/27 10:11:00;;;;;;;10.25;8.38;;;;;;;;;;5030653;28;20081;-74
2022/06/27 10:13:25;;;;;;;12.60;9.07;;;;;;;;;;5034267;28;20078;-79
2022/06/27 10:15:52;;;;;;;12.27;9.13;;;;;;;;;;5009454;28;20029;-75
2022/06/27 10:18:17;;;;;;;12.35;8.63;;;;;;;;;;5014348;28;20029;-77
2022/06/27 10:20:47;;;;;;;11.02;9.00;;;;;;;;;;5035088;28;20305;-79
2022/06/27 10:23:31;;;;;;;12.65;9.25;;;;;;;;;;5011731;28;20026;-75
2022/06/27 10:25:57;;;;;;;12.93;8.95;;;;;;;;;;5028031;28;20419;-74
2022/06/27 10:28:23;;;;;;;12.40;9.75;;;;;;;;;;5028654;28;20077;-76
2022/06/27 10:30:57;;;;;;;11.57;8.90;;;;;;;;;;5028618;28;20022;-78
2022/06/27 10:33:22;;;;;;;13.07;9.18;;;;;;;;;;5013747;28;20104;-79
2022/06/27 10:35:54;;;;;;;11.65;9.02;;;;;;;;;;5010866;28;20450;-80
2022/06/27 10:38:39;;;;;;;13.00;9.40;;;;;;;;;;5009777;28;20029;-78
2022/06/27 10:41:25;;;;;;;10.30;8.40;;;;;;;;;;5032458;28;20026;-79
2022/06/27 10:43:53;;;;;;;11.55;8.48;;;;;;;;;;4996319;28;20049;-77
2022/06/27 10:46:18;;;;;;;12.35;8.00;;;;;;;;;;5032582;28;20021;-79
2022/06/27 10:48:52;;;;;;;11.60;7.90;;;;;;;;;;5018449;28;20025;-76
2022/06/27 10:51:32;;;;;;;14.73;9.55;;;;;;;;;;5016172;28;20029;-74
2022/06/27 10:54:06;;;;;;;11.63;8.23;;;;;;;;;;5020900;28;20435;-79
2022/06/27 10:56:34;;;;;;;11.80;8.82;;;;;;;;;;5034624;28;20049;-75
2022/06/27 10:59:27;;;;;;;11.27;8.55;;;;;;;;;;5013570;28;20029;-79
2022/06/27 11:01:58;;;;;;;11.43;8.23;;;;;;;;;;4982581;28;20425;-78
2022/06/27 11:04:27;;;;;;;10.75;7.90;;;;;;;;;;5030128;28;20017;-79
2022/06/27 11:06:56;;;;;;;8.60;7.07;;;;;;;;;;5013802;28;20032;-76
2022/06/27 11:09:40;;;;;;;10.07;6.95;;;;;;;;;;5035039;28;20028;-76
2022/06/27 11:12:07;;;;;;;10.80;7.63;;;;;;;;;;5017357;28;20033;-74
2022/06/27 11:14:50;;;;;;;10.75;6.97;;;;;;;;;;5014527;28;20784;-76
2022/06/27 11:17:32;;;;;;;8.40;6.32;;;;;;;;;;5011099;28;20116;-76
2022/06/27 11:20:25;;;;;;;9.13;6.07;;;;;;;;;;5015416;28;20025;-76
2022/06/27 11:22:56;;;;;;;10.85;6.00;;;;;;;;;;5007350;28;20033;-75
2022/06/27 11:25:23;;;;;;;12.70;5.78;;;;;;;;;;5034073;28;20029;-79
2022/06/27 11:27:55;;;;;;;8.93;5.30;;;;;;;;;;5035162;28;20137;-76
2022/06/27 11:33:22;;;;;;;8.25;5.45;;;;;;;;;;5030148;28;20028;-76
2022/06/27 11:35:49;;;;;;;8.85;5.57;;;;;;;;;;5033317;28;20025;-79
2022/06/27 11:38:46;;;;;;;8.35;6.45;;;;;;;;;;5030662;28;20082;-78
2022/06/27 11:41:23;;;;;;;9.38;6.50;;;;;;;;;;5004911;28;20029;-76
2022/06/27 11:43:49;;;;;;;9.48;6.25;;;;;;;;;;5027367;28;20056;-79
2022/06/27 11:46:34;;;;;;;8.60;5.95;;;;;;;;;;5032963;28;20076;-79
2022/06/27 11:49:10;;;;;;;12.55;6.55;;;;;;;;;;5009476;28;20083;-78
2022/06/27 11:51:41;;;;;;;12.85;7.75;;;;;;;;;;5033231;28;20029;-74
2022/06/27 11:54:19;;;;;;;11.35;7.18;;;;;;;;;;5029354;28;20028;-76
2022/06/27 11:56:49;;;;;;;10.25;7.28;;;;;;;;;;5035836;28;20017;-75
2022/06/27 11:59:17;;;;;;;9.68;6.28;;;;;;;;;;5013069;28;20483;-77
2022/06/27 12:01:51;;;;;;;8.73;5.68;;;;;;;;;;5028690;28;20029;-79
2022/06/27 12:04:19;;;;;;;8.57;5.90;;;;;;;;;;5010977;28;20036;-79
2022/06/27 12:06:49;;;;;;;8.00;5.40;;;;;;;;;;5029555;28;20026;-75
2022/06/27 12:09:16;;;;;;;8.10;5.10;;;;;;;;;;5009219;28;20545;-74
2022/06/27 12:11:57;;;;;;;8.43;5.30;;;;;;;;;;5012182;28;20016;-79
2022/06/27 12:14:23;;;;;;;7.82;5.50;;;;;;;;;;5029199;28;20025;-79
2022/06/27 12:16:51;;;;;;;10.65;6.03;;;;;;;;;;5025362;28;20052;-77
2022/06/27 12:19:17;;;;;;;7.57;6.00;;;;;;;;;;5011217;28;20112;-73
2022/06/27 12:21:44;;;;;;;10.80;6.55;;;;;;;;;;5028512;28;20109;-79
2022/06/27 12:24:10;;;;;;;7.25;5.10;;;;;;;;;;5009074;28;20032;-74
2022/06/27 12:26:35;;;;;;;9.30;6.80;;;;;;;;;;5024606;28;20029;-78
2022/06/27 12:29:02;;;;;;;8.57;6.90;;;;;;;;;;5006581;28;20140;-75
2022/06/27 12:31:28;;;;;;;11.10;7.75;;;;;;;;;;5005292;28;20021;-77
2022/06/27 12:33:53;;;;;;;9.02;5.50;;;;;;;;;;5006867;28;20478;-73
2022/06/27 12:36:19;;;;;;;7.15;4.57;;;;;;;;;;5009809;28;20030;-75
2022/06/27 12:38:44;;;;;;;6.00;3.67;;;;;;;;;;5011327;28;20026;-75
2022/06/27 12:41:13;;;;;;;8.13;3.55;;;;;;;;;;5009204;28;20062;-73
2022/06/27 12:43:40;;;;;;;4.57;2.88;;;;;;;;;;5015097;28;20109;-74
2022/06/27 12:46:05;;;;;;;5.00;3.13;;;;;;;;;;5006733;28;20029;-78
2022/06/27 12:48:32;;;;;;;6.78;3.30;;;;;;;;;;5022625;28;20084;-73
2022/06/27 12:50:58;;;;;;;5.95;3.00;;;;;;;;;;5010056;28;20105;-78
2022/06/27 12:53:23;;;;;;;4.05;2.75;;;;;;;;;;5012828;28;20120;-75
2022/06/27 12:55:48;;;;;;;5.88;2.30;;;;;;;;;;5009498;28;20457;-76
2022/06/27 12:58:14;;;;;;;6.22;2.22;;;;;;;;;;5008125;28;20069;-73
2022/06/27 13:00:39;;;;;;;3.67;1.85;;;;;;;;;;5013011;28;20422;-74
2022/06/27 13:03:05;;;;;;;4.05;1.90;;;;;;;;;;5012768;28;20064;-77
2022/06/27 13:05:33;;;;;;;3.83;1.73;;;;;;;;;;5009313;28;20437;-73
2022/06/27 13:07:59;;;;;;;3.83;1.83;;;;;;;;;;5015363;28;20485;-76
2022/06/27 13:10:25;;;;;;;2.60;1.75;;;;;;;;;;5014020;28;20034;-78
2022/06/27 13:12:50;;;;;;;3.88;2.30;;;;;;;;;;5012267;28;20547;-75
2022/06/27 13:15:17;;;;;;;6.22;2.65;;;;;;;;;;5012246;28;20037;-77
2022/06/27 13:17:43;;;;;;;5.57;2.60;;;;;;;;;;5010091;28;20032;-77
2022/06/27 13:20:09;;;;;;;4.32;2.60;;;;;;;;;;5005322;28;20072;-75
2022/06/27 13:22:36;;;;;;;4.80;2.90;;;;;;;;;;5008318;28;20037;-73
2022/06/27 13:25:01;;;;;;;6.18;2.78;;;;;;;;;;5012236;28;20034;-75
2022/06/27 13:27:27;;;;;;;4.93;2.45;;;;;;;;;;5006862;28;20128;-77
2022/06/27 13:29:52;;;;;;;5.05;2.70;;;;;;;;;;5010716;28;20050;-79
2022/06/27 13:32:17;;;;;;;4.68;2.40;;;;;;;;;;5010557;28;20406;-75
2022/06/27 13:34:43;;;;;;;6.72;2.63;;;;;;;;;;5012909;28;20030;-78
2022/06/27 13:37:08;;;;;;;5.25;1.92;;;;;;;;;;5007260;28;20022;-75
2022/06/27 13:39:34;;;;;;;3.30;1.90;;;;;;;;;;5010292;28;20115;-77
2022/06/27 13:42:03;;;;;;;2.58;1.60;;;;;;;;;;5010253;28;20030;-77
2022/06/27 13:44:29;;;;;;;2.15;1.67;;;;;;;;;;5007190;28;20097;-77
2022/06/27 13:46:55;;;;;;;2.45;1.50;;;;;;;;;;5013841;28;20037;-76
2022/06/27 13:49:20;;;;;;;4.90;2.00;;;;;;;;;;5018155;28;20037;-74
2022/06/27 13:51:46;;;;;;;3.00;1.80;;;;;;;;;;5011743;28;20025;-79
2022/06/27 13:54:11;;;;;;;3.60;2.33;;;;;;;;;;5023646;28;20397;-76
2022/06/27 13:56:36;;;;;;;3.67;2.30;;;;;;;;;;5005172;28;20037;-77
2022/06/27 13:59:02;;;;;;;6.00;2.53;;;;;;;;;;5007188;28;20033;-79
2022/06/27 14:01:29;;;;;;;4.07;2.70;;;;;;;;;;5004196;28;20498;-79
2022/06/27 14:03:54;;;;;;;4.35;2.70;;;;;;;;;;5011182;28;20053;-77
2022/06/27 14:09:03;;;;;;;3.10;2.08;;;;;;;;;;5016864;28;20517;-80
2022/06/27 14:11:29;;;;;;;4.50;2.20;;;;;;;;;;5010024;28;20022;-78
2022/06/27 14:13:54;;;;;;;2.40;1.60;;;;;;;;;;5008586;28;20104;-73
2022/06/27 14:16:22;;;;;;;6.50;1.67;;;;;;;;;;5011390;28;20030;-79
2022/06/27 14:18:48;;;;;;;4.47;1.60;;;;;;;;;;5010139;28;20042;-79
2022/06/27 14:21:14;;;;;;;4.22;1.50;;;;;;;;;;5016082;28;20026;-77
2022/06/27 14:23:39;;;;;;;3.75;1.73;;;;;;;;;;5017080;28;20025;-74
2022/06/27 14:26:05;;;;;;;2.78;1.65;;;;;;;;;;5011496;28;20057;-76
2022/06/27 14:28:30;;;;;;;4.00;1.80;;;;;;;;;;5017828;28;20049;-76
2022/06/27 14:30:56;;;;;;;3.95;2.28;;;;;;;;;;5030994;28;20043;-76
2022/06/27 14:33:21;;;;;;;4.65;2.33;;;;;;;;;;5015785;28;20432;-76
2022/06/27 14:35:47;;;;;;;5.90;2.38;;;;;;;;;;5007783;28;20095;-79
2022/06/27 14:38:12;;;;;;;3.88;2.40;;;;;;;;;;5028988;28;20029;-72
2022/06/27 14:40:38;;;;;;;3.20;2.10;;;;;;;;;;5027936;28;20033;-76
2022/06/27 14:43:03;;;;;;;4.85;2.50;;;;;;;;;;5012321;28;20108;-77
2022/06/27 14:45:29;;;;;;;3.33;2.17;;;;;;;;;;5029291;28;20432;-74
2022/06/27 14:47:54;;;;;;;4.22;2.63;;;;;;;;;;5027107;28;20040;-76
2022/06/27 14:50:19;;;;;;;4.13;2.50;;;;;;;;;;5028374;28;20021;-75